createdAt,value
2018-09-22T00:01:18.146Z,99709.00
2018-09-22T00:03:47.340Z,99702.00
2018-09-22T00:06:16.544Z,99702.00
2018-09-22T00:08:45.485Z,99709.00
2018-09-22T00:11:14.703Z,99709.00
2018-09-22T00:13:43.669Z,99715.00
2018-09-22T00:16:12.894Z,99708.00
2018-09-22T00:18:41.829Z,99703.00
2018-09-22T00:21:11.008Z,99701.00
2018-09-22T00:23:40.186Z,99695.00
2018-09-22T00:26:09.206Z,99700.00
2018-09-22T00:28:38.475Z,99708.00
2018-09-22T00:31:07.653Z,99700.00
2018-09-22T00:33:36.669Z,99710.00
2018-09-22T00:36:05.880Z,99700.00
2018-09-22T00:38:34.809Z,99705.00
2018-09-22T00:41:03.983Z,99702.00
2018-09-22T00:43:32.887Z,99696.00
2018-09-22T00:46:02.107Z,99716.00
2018-09-22T00:48:31.284Z,99712.00
2018-09-22T00:51:00.489Z,99708.00
2018-09-22T00:53:29.692Z,99706.00
2018-09-22T00:55:58.881Z,99706.00
2018-09-22T00:58:27.907Z,99707.00
2018-09-22T01:00:57.023Z,99720.00
2018-09-22T01:03:26.260Z,99710.00
2018-09-22T01:05:55.237Z,99719.00
2018-09-22T01:08:24.383Z,99721.00
2018-09-22T01:10:53.332Z,99723.00
2018-09-22T01:13:22.317Z,99724.00
2018-09-22T01:15:51.628Z,99730.00
2018-09-22T01:18:20.754Z,99733.00
2018-09-22T01:20:50.255Z,99725.00
2018-09-22T01:23:19.483Z,99739.00
2018-09-22T01:25:48.652Z,99738.00
2018-09-22T01:28:17.791Z,99735.00
2018-09-22T01:30:46.687Z,99729.00
2018-09-22T01:33:15.880Z,99743.00
2018-09-22T01:35:44.842Z,99739.00
2018-09-22T01:38:14.057Z,99749.00
2018-09-22T01:40:43.095Z,99750.00
2018-09-22T01:43:12.362Z,99763.00
2018-09-22T01:45:41.614Z,99759.00
2018-09-22T01:48:10.903Z,99765.00
2018-09-22T01:50:40.121Z,99767.00
2018-09-22T01:53:09.358Z,99762.00
2018-09-22T01:55:38.576Z,99764.00
2018-09-22T01:58:07.743Z,99768.00
2018-09-22T02:00:36.680Z,99772.00
2018-09-22T02:03:05.919Z,99768.00
2018-09-22T02:05:35.080Z,99771.00
2018-09-22T02:08:04.297Z,99780.00
2018-09-22T02:10:33.249Z,99787.00
2018-09-22T02:13:02.540Z,99796.00
2018-09-22T02:15:31.827Z,99788.00
2018-09-22T02:18:01.019Z,99796.00
2018-09-22T02:20:30.285Z,99800.00
2018-09-22T02:22:59.513Z,99792.00
2018-09-22T02:25:28.679Z,99801.00
2018-09-22T02:27:57.636Z,99804.00
2018-09-22T02:30:26.592Z,99799.00
2018-09-22T02:32:55.867Z,99807.00
2018-09-22T02:35:25.040Z,99806.00
2018-09-22T02:37:54.107Z,99810.00
2018-09-22T02:40:23.073Z,99806.00
2018-09-22T02:42:52.354Z,99806.00
2018-09-22T02:45:21.519Z,99813.00
2018-09-22T02:47:50.529Z,99811.00
2018-09-22T02:50:19.447Z,99819.00
2018-09-22T02:52:48.418Z,99826.00
2018-09-22T02:55:17.678Z,99829.00
2018-09-22T02:57:46.872Z,99826.00
2018-09-22T03:00:16.057Z,99821.00
2018-09-22T03:02:45.040Z,99824.00
2018-09-22T03:05:14.206Z,99824.00
2018-09-22T03:07:43.168Z,99841.00
2018-09-22T03:10:12.342Z,99832.00
2018-09-22T03:12:41.578Z,99835.00
2018-09-22T03:15:10.793Z,99836.00
2018-09-22T03:17:39.727Z,99838.00
2018-09-22T03:20:08.715Z,99844.00
2018-09-22T03:22:37.659Z,99841.00
2018-09-22T03:25:06.912Z,99838.00
2018-09-22T03:27:36.126Z,99837.00
2018-09-22T03:30:05.323Z,99834.00
2018-09-22T03:32:34.517Z,99849.00
2018-09-22T03:35:03.762Z,99842.00
2018-09-22T03:37:32.733Z,99850.00
2018-09-22T03:40:01.713Z,99854.00
2018-09-22T03:42:31.000Z,99844.00
2018-09-22T03:45:00.025Z,99850.00
2018-09-22T03:47:29.210Z,99848.00
2018-09-22T03:49:58.178Z,99853.00
2018-09-22T03:52:27.358Z,99852.00
2018-09-22T03:54:56.601Z,99850.00
2018-09-22T03:57:26.105Z,99849.00
2018-09-22T03:59:55.486Z,99853.00
2018-09-22T04:02:24.705Z,99851.00
2018-09-22T04:04:53.631Z,99853.00
2018-09-22T04:07:22.820Z,99863.00
2018-09-22T04:09:51.748Z,99877.00
2018-09-22T04:12:20.950Z,99879.00
2018-09-22T04:14:49.941Z,99891.00
2018-09-22T04:17:18.852Z,99894.00
2018-09-22T04:19:48.061Z,99891.00
2018-09-22T04:22:17.273Z,99905.00
2018-09-22T04:24:46.473Z,99920.00
2018-09-22T04:27:15.654Z,99918.00
2018-09-22T04:29:44.585Z,99914.00
2018-09-22T04:32:13.773Z,99911.00
2018-09-22T04:34:48.629Z,99912.00
2018-09-22T04:37:17.900Z,99905.00
2018-09-22T04:39:47.148Z,99907.00
2018-09-22T04:42:16.358Z,99908.00
2018-09-22T04:44:45.585Z,99914.00
2018-09-22T04:47:14.817Z,99908.00
2018-09-22T04:49:44.599Z,99925.00
2018-09-22T04:52:13.752Z,99932.00
2018-09-22T04:54:42.764Z,99932.00
2018-09-22T04:57:11.775Z,99936.00
2018-09-22T04:59:41.045Z,99935.00
2018-09-22T05:02:10.156Z,99947.00
2018-09-22T05:04:39.533Z,99947.00
2018-09-22T05:07:08.690Z,99939.00
2018-09-22T05:09:37.880Z,99949.00
2018-09-22T05:12:13.327Z,99962.00
2018-09-22T05:14:42.292Z,99956.00
2018-09-22T05:17:11.529Z,99963.00
2018-09-22T05:19:40.806Z,99968.00
2018-09-22T05:22:10.030Z,99971.00
2018-09-22T05:24:39.297Z,99961.00
2018-09-22T05:27:08.483Z,99960.00
2018-09-22T05:29:37.412Z,99968.00
2018-09-22T05:32:06.624Z,99966.00
2018-09-22T05:34:35.856Z,99962.00
2018-09-22T05:37:05.068Z,99970.00
2018-09-22T05:39:34.330Z,99976.00
2018-09-22T05:42:03.357Z,99975.00
2018-09-22T05:44:32.579Z,99973.00
2018-09-22T05:47:01.569Z,99975.00
2018-09-22T05:49:30.554Z,99985.00
2018-09-22T05:51:59.740Z,99981.00
2018-09-22T05:54:29.020Z,99983.00
2018-09-22T05:56:57.989Z,99991.00
2018-09-22T05:59:27.150Z,99987.00
2018-09-22T06:01:56.376Z,99983.00
2018-09-22T06:04:25.307Z,99993.00
2018-09-22T06:06:54.275Z,100000.00
2018-09-22T06:09:23.277Z,100005.00
2018-09-22T06:11:52.257Z,100009.00
2018-09-22T06:14:21.233Z,100012.00
2018-09-22T06:16:50.428Z,100024.00
2018-09-22T06:19:19.366Z,100021.00
2018-09-22T06:21:48.529Z,100033.00
2018-09-22T06:24:17.724Z,100029.00
2018-09-22T06:26:46.678Z,100041.00
2018-09-22T06:29:15.861Z,100049.00
2018-09-22T06:31:44.805Z,100044.00
2018-09-22T06:34:16.125Z,100050.00
2018-09-22T06:36:45.078Z,100054.00
2018-09-22T06:39:14.500Z,100052.00
2018-09-22T06:41:43.514Z,100057.00
2018-09-22T06:44:12.879Z,100057.00
2018-09-22T06:46:43.148Z,100067.00
2018-09-22T06:49:12.635Z,100069.00
2018-09-22T06:51:41.839Z,100064.00
2018-09-22T06:54:11.035Z,100066.00
2018-09-22T06:56:40.344Z,100065.00
2018-09-22T06:59:10.013Z,100056.00
2018-09-22T07:01:38.979Z,100074.00
2018-09-22T07:04:08.201Z,100077.00
2018-09-22T07:06:37.181Z,100074.00
2018-09-22T07:09:07.886Z,100076.00
2018-09-22T07:11:36.942Z,100061.00
2018-09-22T07:14:05.892Z,100057.00
2018-09-22T07:16:35.035Z,100077.00
2018-09-22T07:19:04.219Z,100078.00
2018-09-22T07:21:38.707Z,100084.00
2018-09-22T07:24:07.949Z,100087.00
2018-09-22T07:26:37.141Z,100074.00
2018-09-22T07:29:06.121Z,100078.00
2018-09-22T07:31:35.121Z,100078.00
2018-09-22T07:34:04.335Z,100092.00
2018-09-22T07:36:33.290Z,100076.00
2018-09-22T07:39:02.462Z,100080.00
2018-09-22T07:41:31.423Z,100081.00
2018-09-22T07:44:00.451Z,100083.00
2018-09-22T07:46:29.407Z,100095.00
2018-09-22T07:48:58.394Z,100096.00
2018-09-22T07:51:27.572Z,100090.00
2018-09-22T07:53:56.512Z,100089.00
2018-09-22T07:56:25.470Z,100096.00
2018-09-22T07:58:55.020Z,100108.00
2018-09-22T08:01:24.387Z,100098.00
2018-09-22T08:03:53.355Z,100106.00
2018-09-22T08:06:22.524Z,100120.00
2018-09-22T08:08:51.687Z,100119.00
2018-09-22T08:11:20.697Z,100117.00
2018-09-22T08:13:49.657Z,100116.00
2018-09-22T08:16:18.941Z,100117.00
2018-09-22T08:18:48.164Z,100113.00
2018-09-22T08:21:17.124Z,100112.00
2018-09-22T08:23:46.052Z,100109.00
2018-09-22T08:26:15.306Z,100107.00
2018-09-22T08:28:44.501Z,100110.00
2018-09-22T08:31:13.753Z,100125.00
2018-09-22T08:33:42.953Z,100127.00
2018-09-22T08:36:12.259Z,100127.00
2018-09-22T08:38:41.377Z,100128.00
2018-09-22T08:41:10.605Z,100137.00
2018-09-22T08:43:39.777Z,100137.00
2018-09-22T08:46:08.987Z,100141.00
2018-09-22T08:48:38.181Z,100142.00
2018-09-22T08:51:07.211Z,100139.00
2018-09-22T08:53:36.315Z,100140.00
2018-09-22T08:56:05.355Z,100147.00
2018-09-22T08:58:34.283Z,100155.00
2018-09-22T09:01:03.476Z,100148.00
2018-09-22T09:03:32.442Z,100145.00
2018-09-22T09:06:01.543Z,100147.00
2018-09-22T09:08:30.787Z,100142.00
2018-09-22T09:10:59.751Z,100141.00
2018-09-22T09:13:28.957Z,100140.00
2018-09-22T09:15:57.949Z,100139.00
2018-09-22T09:18:26.937Z,100139.00
2018-09-22T09:20:56.153Z,100142.00
2018-09-22T09:23:25.388Z,100145.00
2018-09-22T09:25:54.584Z,100138.00
2018-09-22T09:28:23.809Z,100154.00
2018-09-22T09:30:53.131Z,100155.00
2018-09-22T09:33:22.279Z,100152.00
2018-09-22T09:35:51.500Z,100147.00
2018-09-22T09:38:20.773Z,100147.00
2018-09-22T09:40:49.730Z,100144.00
2018-09-22T09:43:19.015Z,100149.00
2018-09-22T09:45:47.920Z,100148.00
2018-09-22T09:48:17.109Z,100157.00
2018-09-22T09:50:46.336Z,100154.00
2018-09-22T09:53:15.588Z,100155.00
2018-09-22T09:55:44.810Z,100162.00
2018-09-22T09:58:14.021Z,100157.00
2018-09-22T10:00:45.757Z,100153.00
2018-09-22T10:03:16.656Z,100156.00
2018-09-22T10:05:46.196Z,100140.00
2018-09-22T10:08:15.527Z,100140.00
2018-09-22T10:10:45.357Z,100150.00
2018-09-22T10:13:14.542Z,100143.00
2018-09-22T10:15:43.959Z,100145.00
2018-09-22T10:18:13.134Z,100143.00
2018-09-22T10:20:42.605Z,100142.00
2018-09-22T10:23:11.652Z,100142.00
2018-09-22T10:25:40.943Z,100141.00
2018-09-22T10:28:10.365Z,100132.00
2018-09-22T10:30:39.605Z,100135.00
2018-09-22T10:33:08.794Z,100132.00
2018-09-22T10:35:37.777Z,100132.00
2018-09-22T10:38:07.042Z,100117.00
2018-09-22T10:40:36.333Z,100119.00
2018-09-22T10:43:05.400Z,100114.00
2018-09-22T10:45:34.603Z,100108.00
2018-09-22T10:48:03.796Z,100107.00
2018-09-22T10:50:33.069Z,100114.00
2018-09-22T10:53:02.313Z,100121.00
2018-09-22T10:55:31.566Z,100130.00
2018-09-22T10:58:00.567Z,100124.00
2018-09-22T11:00:29.493Z,100121.00
2018-09-22T11:02:58.675Z,100121.00
2018-09-22T11:05:27.848Z,100117.00
2018-09-22T11:07:57.043Z,100122.00
2018-09-22T11:10:26.210Z,100110.00
2018-09-22T11:12:55.159Z,100109.00
2018-09-22T11:15:24.313Z,100129.00
2018-09-22T11:17:53.510Z,100119.00
2018-09-22T11:20:22.888Z,100121.00
2018-09-22T11:22:51.866Z,100108.00
2018-09-22T11:25:21.006Z,100114.00
2018-09-22T11:27:50.452Z,100112.00
2018-09-22T11:30:19.591Z,100116.00
2018-09-22T11:32:48.739Z,100110.00
2018-09-22T11:35:19.138Z,100109.00
2018-09-22T11:37:48.853Z,100120.00
2018-09-22T11:40:18.035Z,100107.00
2018-09-22T11:42:47.210Z,100102.00
2018-09-22T11:45:16.367Z,100113.00
2018-09-22T11:47:45.552Z,100100.00
2018-09-22T11:50:14.687Z,100116.00
2018-09-22T11:52:43.831Z,100116.00
2018-09-22T11:55:12.757Z,100116.00
2018-09-22T11:57:41.938Z,100112.00
2018-09-22T12:00:11.045Z,100107.00
2018-09-22T12:02:40.291Z,100106.00
2018-09-22T12:05:09.202Z,100106.00
2018-09-22T12:07:38.356Z,100109.00
2018-09-22T12:10:07.336Z,100108.00
2018-09-22T12:12:36.471Z,100107.00
2018-09-22T12:15:05.544Z,100109.00
2018-09-22T12:17:34.627Z,100089.00
2018-09-22T12:20:03.554Z,100084.00
2018-09-22T12:22:32.674Z,100069.00
2018-09-22T12:25:01.849Z,100076.00
2018-09-22T12:27:31.007Z,100077.00
2018-09-22T12:30:00.233Z,100073.00
2018-09-22T12:32:29.471Z,100070.00
2018-09-22T12:34:58.619Z,100069.00
2018-09-22T12:37:27.792Z,100081.00
2018-09-22T12:39:56.934Z,100064.00
2018-09-22T12:42:26.075Z,100075.00
2018-09-22T12:44:55.242Z,100079.00
2018-09-22T12:47:24.378Z,100080.00
2018-09-22T12:49:53.503Z,100093.00
2018-09-22T12:52:22.654Z,100087.00
2018-09-22T12:54:51.802Z,100086.00
2018-09-22T12:57:20.954Z,100073.00
2018-09-22T12:59:50.103Z,100075.00
2018-09-22T13:02:19.015Z,100076.00
2018-09-22T13:04:48.179Z,100074.00
2018-09-22T13:07:17.224Z,100060.00
2018-09-22T13:09:46.491Z,100053.00
2018-09-22T13:12:15.451Z,100053.00
2018-09-22T13:14:44.618Z,100038.00
2018-09-22T13:17:13.797Z,100050.00
2018-09-22T13:19:42.975Z,100053.00
2018-09-22T13:22:12.185Z,100041.00
2018-09-22T13:24:41.404Z,100037.00
2018-09-22T13:27:10.574Z,100055.00
2018-09-22T13:29:39.757Z,100038.00
2018-09-22T13:32:08.717Z,100045.00
2018-09-22T13:34:37.662Z,100055.00
2018-09-22T13:37:07.157Z,100069.00
2018-09-22T13:39:36.422Z,100064.00
2018-09-22T13:42:05.635Z,100068.00
2018-09-22T13:44:38.623Z,100050.00
2018-09-22T13:47:08.128Z,100034.00
2018-09-22T13:49:37.296Z,100039.00
2018-09-22T13:52:06.474Z,100043.00
2018-09-22T13:54:35.623Z,100034.00
2018-09-22T13:57:04.855Z,100035.00
2018-09-22T13:59:34.019Z,100030.00
2018-09-22T14:02:02.942Z,100025.00
2018-09-22T14:04:32.080Z,100030.00
2018-09-22T14:07:01.229Z,100023.00
2018-09-22T14:09:30.375Z,100019.00
2018-09-22T14:11:59.516Z,100005.00
2018-09-22T14:14:28.667Z,100018.00
2018-09-22T14:16:57.625Z,100011.00
2018-09-22T14:19:26.828Z,100009.00
2018-09-22T14:21:55.933Z,99990.00
2018-09-22T14:24:25.105Z,99988.00
2018-09-22T14:26:54.363Z,99987.00
2018-09-22T14:29:23.548Z,99994.00
2018-09-22T14:31:52.706Z,100026.00
2018-09-22T14:34:21.847Z,100022.00
2018-09-22T14:36:51.045Z,100025.00
2018-09-22T14:39:20.218Z,100020.00
2018-09-22T14:41:49.480Z,100017.00
2018-09-22T14:44:18.668Z,100002.00
2018-09-22T14:46:47.847Z,99990.00
2018-09-22T14:49:17.045Z,99988.00
2018-09-22T14:51:46.139Z,99988.00
2018-09-22T14:54:15.091Z,99992.00
2018-09-22T14:56:44.247Z,99999.00
2018-09-22T14:59:13.420Z,100003.00
2018-09-22T15:01:42.331Z,99978.00
2018-09-22T15:04:21.961Z,99982.00
2018-09-22T15:06:51.132Z,99978.00
2018-09-22T15:09:20.294Z,99977.00
2018-09-22T15:11:49.422Z,99968.00
2018-09-22T15:14:18.600Z,99967.00
2018-09-22T15:16:47.473Z,99961.00
2018-09-22T15:19:16.627Z,99954.00
2018-09-22T15:21:45.797Z,99953.00
2018-09-22T15:24:14.943Z,99943.00
2018-09-22T15:26:43.813Z,99947.00
2018-09-22T15:29:12.961Z,99943.00
2018-09-22T15:31:42.232Z,99945.00
2018-09-22T15:34:11.347Z,99953.00
2018-09-22T15:36:40.577Z,99955.00
2018-09-22T15:39:09.959Z,99950.00
2018-09-22T15:41:38.903Z,99940.00
2018-09-22T15:44:08.056Z,99933.00
2018-09-22T15:46:37.215Z,99937.00
2018-09-22T15:49:06.360Z,99943.00
2018-09-22T15:51:35.271Z,99946.00
2018-09-22T15:54:04.182Z,99945.00
2018-09-22T15:56:33.069Z,99936.00
2018-09-22T15:59:02.284Z,99932.00
2018-09-22T16:01:31.439Z,99934.00
2018-09-22T16:04:00.652Z,99933.00
2018-09-22T16:06:29.846Z,99927.00
2018-09-22T16:08:58.995Z,99930.00
2018-09-22T16:11:27.952Z,99913.00
2018-09-22T16:13:57.095Z,99921.00
2018-09-22T16:16:26.287Z,99929.00
2018-09-22T16:18:55.415Z,99919.00
2018-09-22T16:21:24.644Z,99927.00
2018-09-22T16:23:53.690Z,99920.00
2018-09-22T16:26:22.799Z,99899.00
2018-09-22T16:28:51.936Z,99900.00
2018-09-22T16:31:20.846Z,99899.00
2018-09-22T16:33:50.006Z,99907.00
2018-09-22T16:36:19.290Z,99918.00
2018-09-22T16:38:48.421Z,99914.00
2018-09-22T16:41:17.348Z,99909.00
2018-09-22T16:43:46.469Z,99906.00
2018-09-22T16:46:15.608Z,99905.00
2018-09-22T16:48:44.810Z,99899.00
2018-09-22T16:51:14.003Z,99899.00
2018-09-22T16:53:46.935Z,99891.00
2018-09-22T16:56:23.404Z,99888.00
2018-09-22T16:58:53.780Z,99880.00
2018-09-22T17:01:22.782Z,99881.00
2018-09-22T17:03:51.948Z,99888.00
2018-09-22T17:06:21.106Z,99881.00
2018-09-22T17:08:50.309Z,99884.00
2018-09-22T17:11:19.212Z,99877.00
2018-09-22T17:13:55.148Z,99898.00
2018-09-22T17:16:24.345Z,99901.00
2018-09-22T17:18:53.425Z,99903.00
2018-09-22T17:21:22.567Z,99899.00
2018-09-22T17:23:51.670Z,99902.00
2018-09-22T17:26:20.812Z,99904.00
2018-09-22T17:28:49.827Z,99902.00
2018-09-22T17:31:18.726Z,99902.00
2018-09-22T17:33:47.857Z,99905.00
2018-09-22T17:36:19.034Z,99892.00
2018-09-22T17:38:48.182Z,99885.00
2018-09-22T17:41:17.085Z,99876.00
2018-09-22T17:43:46.264Z,99881.00
2018-09-22T17:46:15.436Z,99875.00
2018-09-22T17:48:44.545Z,99879.00
2018-09-22T17:51:13.671Z,99887.00
2018-09-22T17:53:42.834Z,99889.00
2018-09-22T17:56:11.951Z,99895.00
2018-09-22T17:58:40.859Z,99903.00
2018-09-22T18:01:10.084Z,99898.00
2018-09-22T18:03:39.007Z,99908.00
2018-09-22T18:06:08.199Z,99902.00
2018-09-22T18:08:37.110Z,99901.00
2018-09-22T18:11:06.235Z,99906.00
2018-09-22T18:13:35.465Z,99906.00
2018-09-22T18:16:04.399Z,99910.00
2018-09-22T18:18:33.574Z,99914.00
2018-09-22T18:21:02.754Z,99894.00
2018-09-22T18:23:31.903Z,99905.00
2018-09-22T18:26:00.898Z,99899.00
2018-09-22T18:28:30.024Z,99910.00
2018-09-22T18:30:59.154Z,99898.00
2018-09-22T18:33:28.255Z,99893.00
2018-09-22T18:35:57.391Z,99901.00
2018-09-22T18:38:26.521Z,99899.00
2018-09-22T18:40:55.651Z,99891.00
2018-09-22T18:43:24.834Z,99886.00
2018-09-22T18:45:53.966Z,99870.00
2018-09-22T18:48:26.885Z,99883.00
2018-09-22T18:50:56.023Z,99898.00
2018-09-22T18:53:25.137Z,99900.00
2018-09-22T18:55:54.271Z,99913.00
2018-09-22T18:58:23.472Z,99916.00
2018-09-22T19:00:52.438Z,99912.00
2018-09-22T19:03:44.412Z,99906.00
2018-09-22T19:06:13.654Z,99911.00
2018-09-22T19:08:42.787Z,99915.00
2018-09-22T19:11:11.908Z,99915.00
2018-09-22T19:13:47.852Z,99916.00
2018-09-22T19:16:24.990Z,99912.00
2018-09-22T19:18:59.928Z,99917.00
2018-09-22T19:21:39.278Z,99921.00
2018-09-22T19:24:13.437Z,99920.00
2018-09-22T19:26:46.288Z,99910.00
2018-09-22T19:29:28.181Z,99907.00
2018-09-22T19:32:00.755Z,99903.00
2018-09-22T19:34:33.294Z,99911.00
2018-09-22T19:37:06.627Z,99919.00
2018-09-22T19:39:41.838Z,99927.00
2018-09-22T19:42:14.033Z,99924.00
2018-09-22T19:44:49.521Z,99933.00
2018-09-22T19:47:25.839Z,99919.00
2018-09-22T19:50:00.244Z,99935.00
2018-09-22T19:52:32.630Z,99931.00
2018-09-22T19:55:01.848Z,99940.00
2018-09-22T19:57:31.039Z,99937.00
2018-09-22T20:00:00.171Z,99933.00
2018-09-22T20:02:29.359Z,99924.00
2018-09-22T20:04:58.451Z,99935.00
2018-09-22T20:07:27.575Z,99924.00
2018-09-22T20:09:56.884Z,99928.00
2018-09-22T20:12:27.709Z,99928.00
2018-09-22T20:14:57.826Z,99928.00
2018-09-22T20:17:27.417Z,99940.00
2018-09-22T20:19:57.214Z,99935.00
2018-09-22T20:22:26.628Z,99937.00
2018-09-22T20:24:56.026Z,99947.00
2018-09-22T20:27:25.576Z,99934.00
2018-09-22T20:29:54.474Z,99935.00
2018-09-22T20:32:24.796Z,99943.00
2018-09-22T20:34:54.301Z,99949.00
2018-09-22T20:37:23.648Z,99945.00
2018-09-22T20:39:52.943Z,99939.00
2018-09-22T20:42:24.143Z,99948.00
2018-09-22T20:44:53.498Z,99963.00
2018-09-22T20:47:25.961Z,99965.00
2018-09-22T20:49:55.222Z,99949.00
2018-09-22T20:52:24.748Z,99933.00
2018-09-22T20:54:53.875Z,99929.00
2018-09-22T20:57:23.052Z,99927.00
2018-09-22T20:59:52.193Z,99932.00
2018-09-22T21:02:21.488Z,99936.00
2018-09-22T21:04:50.603Z,99936.00
2018-09-22T21:07:19.779Z,99937.00
2018-09-22T21:09:48.927Z,99933.00
2018-09-22T21:12:17.913Z,99937.00
2018-09-22T21:14:47.147Z,99933.00
2018-09-22T21:17:16.082Z,99938.00
2018-09-22T21:19:45.266Z,99941.00
2018-09-22T21:22:14.480Z,99941.00
2018-09-22T21:24:43.579Z,99942.00
2018-09-22T21:27:12.711Z,99932.00
2018-09-22T21:29:41.948Z,99937.00
2018-09-22T21:32:11.260Z,99938.00
2018-09-22T21:34:40.435Z,99936.00
2018-09-22T21:37:09.830Z,99935.00
2018-09-22T21:39:38.749Z,99927.00
2018-09-22T21:42:07.630Z,99930.00
2018-09-22T21:44:36.824Z,99927.00
2018-09-22T21:47:06.037Z,99937.00
2018-09-22T21:49:35.156Z,99931.00
2018-09-22T21:52:04.339Z,99918.00
2018-09-22T21:54:33.254Z,99936.00
2018-09-22T21:57:03.135Z,99936.00
2018-09-22T21:59:32.242Z,99935.00
2018-09-22T22:02:01.401Z,99938.00
2018-09-22T22:04:30.367Z,99935.00
2018-09-22T22:06:59.272Z,99927.00
2018-09-22T22:09:28.361Z,99921.00
2018-09-22T22:11:57.294Z,99928.00
2018-09-22T22:14:26.443Z,99926.00
2018-09-22T22:16:55.418Z,99929.00
2018-09-22T22:19:24.519Z,99931.00
2018-09-22T22:21:53.450Z,99927.00
2018-09-22T22:24:22.653Z,99918.00
2018-09-22T22:26:52.016Z,99912.00
2018-09-22T22:29:20.915Z,99920.00
2018-09-22T22:31:50.104Z,99916.00
2018-09-22T22:34:19.010Z,99904.00
2018-09-22T22:36:47.910Z,99909.00
2018-09-22T22:39:17.103Z,99920.00
2018-09-22T22:41:46.031Z,99914.00
2018-09-22T22:44:15.131Z,99915.00
2018-09-22T22:46:44.287Z,99911.00
2018-09-22T22:49:13.403Z,99913.00
2018-09-22T22:51:42.571Z,99911.00
2018-09-22T22:54:11.718Z,99913.00
2018-09-22T22:56:40.892Z,99900.00
2018-09-22T22:59:09.997Z,99908.00
2018-09-22T23:01:39.106Z,99893.00
2018-09-22T23:04:08.274Z,99903.00
2018-09-22T23:06:37.452Z,99895.00
2018-09-22T23:09:08.248Z,99884.00
2018-09-22T23:11:37.474Z,99887.00
2018-09-22T23:14:07.561Z,99889.00
2018-09-22T23:16:36.538Z,99889.00
2018-09-22T23:19:06.045Z,99894.00
2018-09-22T23:21:34.941Z,99901.00
2018-09-22T23:24:03.870Z,99897.00
2018-09-22T23:26:33.080Z,99894.00
2018-09-22T23:29:02.064Z,99898.00
2018-09-22T23:31:30.985Z,99902.00
2018-09-22T23:34:00.254Z,99897.00
2018-09-22T23:36:29.503Z,99899.00
2018-09-22T23:38:58.497Z,99907.00
2018-09-22T23:41:27.395Z,99903.00
2018-09-22T23:43:56.303Z,99899.00
2018-09-22T23:46:25.543Z,99899.00
2018-09-22T23:49:08.289Z,99910.00
2018-09-22T23:51:37.327Z,99900.00
2018-09-22T23:54:06.575Z,99900.00
2018-09-22T23:56:35.903Z,99898.00
2018-09-22T23:59:04.875Z,99891.00
